createdAt,value
2023-10-09T00:00:52.087Z,100860.00
2023-10-09T00:03:23.934Z,100849.00
2023-10-09T00:05:54.782Z,100847.00
2023-10-09T00:08:31.419Z,100851.00
2023-10-09T00:11:14.661Z,100852.00
2023-10-09T00:13:50.171Z,100852.00
2023-10-09T00:16:25.643Z,100832.00
2023-10-09T00:18:55.249Z,100811.00
2023-10-09T00:21:24.416Z,100807.00
2023-10-09T00:23:57.012Z,100803.00
2023-10-09T00:26:27.616Z,100808.00
2023-10-09T00:28:56.267Z,100797.00
2023-10-09T00:31:34.445Z,100762.00
2023-10-09T00:34:04.772Z,100755.00
2023-10-09T00:36:34.160Z,100751.00
2023-10-09T00:39:13.307Z,100732.00
2023-10-09T00:41:43.845Z,100708.00
2023-10-09T00:44:12.922Z,100701.00
2023-10-09T00:46:44.254Z,100707.00
2023-10-09T00:49:17.095Z,100720.00
2023-10-09T00:51:57.876Z,100740.00
2023-10-09T00:54:28.973Z,100753.00
2023-10-09T00:57:07.856Z,100748.00
2023-10-09T00:59:39.993Z,100759.00
2023-10-09T01:02:08.911Z,100747.00
2023-10-09T01:04:42.441Z,100753.00
2023-10-09T01:07:16.722Z,100747.00
2023-10-09T01:09:46.182Z,100743.00
2023-10-09T01:12:19.626Z,100733.00
2023-10-09T01:14:53.884Z,100730.00
2023-10-09T01:17:37.341Z,100734.00
2023-10-09T01:20:15.439Z,100716.00
2023-10-09T01:22:44.739Z,100709.00
2023-10-09T01:25:17.185Z,100707.00
2023-10-09T01:27:46.047Z,100709.00
2023-10-09T01:30:16.151Z,100694.00
2023-10-09T01:32:46.434Z,100693.00
2023-10-09T01:35:23.458Z,100697.00
2023-10-09T01:37:52.788Z,100705.00
2023-10-09T01:40:36.671Z,100691.00
2023-10-09T01:43:06.009Z,100696.00
2023-10-09T01:45:43.424Z,100696.00
2023-10-09T01:48:13.590Z,100690.00
2023-10-09T01:50:43.260Z,100676.00
2023-10-09T01:53:18.914Z,100663.00
2023-10-09T01:55:51.017Z,100652.00
2023-10-09T01:58:25.651Z,100633.00
2023-10-09T02:00:56.724Z,100632.00
2023-10-09T02:03:30.538Z,100637.00
2023-10-09T02:06:01.686Z,100619.00
2023-10-09T02:08:31.232Z,100612.00
2023-10-09T02:11:04.029Z,100629.00
2023-10-09T02:13:35.913Z,100625.00
2023-10-09T02:16:16.155Z,100605.00
2023-10-09T02:18:55.307Z,100590.00
2023-10-09T02:21:34.377Z,100579.00
2023-10-09T02:24:08.501Z,100573.00
2023-10-09T02:26:52.600Z,100564.00
2023-10-09T02:29:24.985Z,100559.00
2023-10-09T02:31:56.221Z,100554.00
2023-10-09T02:34:27.254Z,100555.00
2023-10-09T02:37:05.530Z,100561.00
2023-10-09T02:39:38.312Z,100548.00
2023-10-09T02:42:20.672Z,100545.00
2023-10-09T02:44:51.738Z,100524.00
2023-10-09T02:47:26.104Z,100520.00
2023-10-09T02:50:01.814Z,100518.00
2023-10-09T02:52:35.428Z,100503.00
2023-10-09T02:55:14.991Z,100497.00
2023-10-09T02:57:46.665Z,100492.00
2023-10-09T03:00:20.664Z,100492.00
2023-10-09T03:02:52.287Z,100497.00
2023-10-09T03:05:21.982Z,100490.00
2023-10-09T03:07:53.324Z,100480.00
2023-10-09T03:10:22.721Z,100475.00
2023-10-09T03:12:54.450Z,100467.00
2023-10-09T03:15:23.363Z,100447.00
2023-10-09T03:17:52.286Z,100435.00
2023-10-09T03:20:21.053Z,100428.00
2023-10-09T03:22:50.775Z,100421.00
2023-10-09T03:25:19.646Z,100425.00
2023-10-09T03:27:48.916Z,100411.00
2023-10-09T03:30:24.240Z,100408.00
2023-10-09T03:32:54.228Z,100419.00
2023-10-09T03:35:27.445Z,100439.00
2023-10-09T03:38:01.542Z,100424.00
2023-10-09T03:40:32.222Z,100421.00
2023-10-09T03:43:02.380Z,100424.00
2023-10-09T03:45:36.515Z,100428.00
2023-10-09T03:48:12.513Z,100436.00
2023-10-09T03:50:44.574Z,100442.00
2023-10-09T03:53:14.115Z,100432.00
2023-10-09T03:55:43.344Z,100424.00
2023-10-09T03:58:14.948Z,100418.00
2023-10-09T04:00:48.355Z,100427.00
2023-10-09T04:03:18.978Z,100415.00
2023-10-09T04:05:47.884Z,100425.00
2023-10-09T04:08:30.460Z,100423.00
2023-10-09T04:11:05.157Z,100428.00
2023-10-09T04:13:35.657Z,100425.00
2023-10-09T04:16:21.168Z,100431.00
2023-10-09T04:18:50.830Z,100429.00
2023-10-09T04:21:29.330Z,100414.00
2023-10-09T04:24:15.985Z,100413.00
2023-10-09T04:26:46.439Z,100407.00
2023-10-09T04:29:19.711Z,100397.00
2023-10-09T04:31:52.979Z,100408.00
2023-10-09T04:34:25.237Z,100401.00
2023-10-09T04:36:58.148Z,100400.00
2023-10-09T04:39:48.647Z,100398.00
2023-10-09T04:42:35.470Z,100410.00
2023-10-09T04:45:37.042Z,100415.00
2023-10-09T04:48:10.228Z,100390.00
2023-10-09T04:50:59.652Z,100376.00
2023-10-09T04:53:29.985Z,100374.00
2023-10-09T04:55:58.752Z,100363.00
2023-10-09T04:58:28.381Z,100359.00
2023-10-09T05:01:20.248Z,100353.00
2023-10-09T05:03:58.174Z,100340.00
2023-10-09T05:06:55.809Z,100332.00
2023-10-09T05:09:25.298Z,100336.00
2023-10-09T05:12:10.769Z,100332.00
2023-10-09T05:14:48.827Z,100326.00
2023-10-09T05:17:19.178Z,100322.00
2023-10-09T05:20:18.036Z,100306.00
2023-10-09T05:22:58.352Z,100300.00
2023-10-09T05:25:53.970Z,100307.00
2023-10-09T05:28:33.143Z,100314.00
2023-10-09T05:31:09.657Z,100305.00
2023-10-09T05:33:40.032Z,100314.00
2023-10-09T05:36:27.827Z,100310.00
2023-10-09T05:39:18.815Z,100337.00
2023-10-09T05:41:49.239Z,100336.00
2023-10-09T05:44:35.174Z,100324.00
2023-10-09T05:47:20.363Z,100318.00
2023-10-09T05:49:56.117Z,100315.00
2023-10-09T05:53:01.977Z,100311.00
2023-10-09T05:55:49.390Z,100331.00
2023-10-09T05:58:35.554Z,100314.00
2023-10-09T06:01:21.884Z,100316.00
2023-10-09T06:03:55.107Z,100315.00
2023-10-09T06:06:44.163Z,100308.00
2023-10-09T06:09:50.996Z,100317.00
2023-10-09T06:12:34.688Z,100310.00
2023-10-09T06:15:21.976Z,100306.00
2023-10-09T06:17:52.711Z,100312.00
2023-10-09T06:20:38.929Z,100310.00
2023-10-09T06:23:17.853Z,100311.00
2023-10-09T06:25:52.755Z,100308.00
2023-10-09T06:28:34.146Z,100317.00
2023-10-09T06:31:23.709Z,100304.00
2023-10-09T06:34:16.886Z,100302.00
2023-10-09T06:36:54.273Z,100306.00
2023-10-09T06:39:40.441Z,100301.00
2023-10-09T06:42:32.369Z,100302.00
2023-10-09T06:45:05.843Z,100304.00
2023-10-09T06:47:42.279Z,100302.00
2023-10-09T06:50:25.673Z,100306.00
2023-10-09T06:53:25.485Z,100320.00
2023-10-09T06:56:06.363Z,100326.00
2023-10-09T06:58:43.278Z,100320.00
2023-10-09T07:01:41.028Z,100326.00
2023-10-09T07:04:20.642Z,100331.00
2023-10-09T07:06:52.270Z,100350.00
2023-10-09T07:09:21.061Z,100343.00
2023-10-09T07:12:04.678Z,100347.00
2023-10-09T07:14:55.204Z,100361.00
2023-10-09T07:17:44.476Z,100353.00
2023-10-09T07:20:37.749Z,100351.00
2023-10-09T07:23:19.084Z,100340.00
2023-10-09T07:26:07.357Z,100339.00
2023-10-09T07:28:43.921Z,100356.00
2023-10-09T07:31:41.453Z,100348.00
2023-10-09T07:34:24.324Z,100350.00
2023-10-09T07:36:57.861Z,100347.00
2023-10-09T07:39:35.437Z,100358.00
2023-10-09T07:42:27.826Z,100364.00
2023-10-09T07:45:12.321Z,100360.00
2023-10-09T07:48:02.114Z,100362.00
2023-10-09T07:50:39.438Z,100363.00
2023-10-09T07:53:19.241Z,100369.00
2023-10-09T07:55:55.370Z,100377.00
2023-10-09T07:58:27.261Z,100368.00
2023-10-09T08:01:09.194Z,100386.00
2023-10-09T08:03:39.818Z,100374.00
2023-10-09T08:06:25.329Z,100381.00
2023-10-09T08:09:08.828Z,100374.00
2023-10-09T08:12:00.995Z,100385.00
2023-10-09T08:14:44.241Z,100383.00
2023-10-09T08:17:22.176Z,100389.00
2023-10-09T08:19:55.568Z,100388.00
2023-10-09T08:22:44.391Z,100387.00
2023-10-09T08:25:27.420Z,100389.00
2023-10-09T08:27:58.234Z,100399.00
2023-10-09T08:30:30.286Z,100395.00
2023-10-09T08:35:49.310Z,100386.00
2023-10-09T08:38:24.685Z,100399.00
2023-10-09T08:40:59.897Z,100408.00
2023-10-09T08:43:32.260Z,100404.00
2023-10-09T08:46:03.910Z,100407.00
2023-10-09T08:48:33.905Z,100401.00
2023-10-09T08:51:07.496Z,100410.00
2023-10-09T08:53:36.360Z,100395.00
2023-10-09T08:56:05.744Z,100397.00
2023-10-09T08:58:38.233Z,100394.00
2023-10-09T09:01:07.106Z,100397.00
2023-10-09T09:03:42.023Z,100404.00
2023-10-09T09:06:15.268Z,100403.00
2023-10-09T09:08:46.185Z,100390.00
2023-10-09T09:11:17.418Z,100409.00
2023-10-09T09:13:50.959Z,100404.00
2023-10-09T09:16:22.757Z,100408.00
2023-10-09T09:19:01.991Z,100411.00
2023-10-09T09:21:39.067Z,100406.00
2023-10-09T09:24:16.862Z,100402.00
2023-10-09T09:26:59.947Z,100394.00
2023-10-09T09:29:53.634Z,100379.00
2023-10-09T09:32:37.084Z,100375.00
2023-10-09T09:35:06.973Z,100373.00
2023-10-09T09:37:51.815Z,100385.00
2023-10-09T09:40:34.937Z,100398.00
2023-10-09T09:43:07.843Z,100406.00
2023-10-09T09:45:38.534Z,100408.00
2023-10-09T09:48:08.319Z,100411.00
2023-10-09T09:50:44.499Z,100394.00
2023-10-09T09:53:18.403Z,100401.00
2023-10-09T09:55:57.901Z,100401.00
2023-10-09T09:58:33.739Z,100400.00
2023-10-09T10:01:17.279Z,100399.00
2023-10-09T10:03:50.152Z,100385.00
2023-10-09T10:06:22.430Z,100408.00
2023-10-09T10:08:53.294Z,100402.00
2023-10-09T10:11:46.761Z,100405.00
2023-10-09T10:14:23.604Z,100404.00
2023-10-09T10:17:20.551Z,100411.00
2023-10-09T10:20:23.819Z,100410.00
2023-10-09T10:22:53.116Z,100417.00
2023-10-09T10:25:42.541Z,100406.00
2023-10-09T10:28:40.585Z,100397.00
2023-10-09T10:31:10.765Z,100394.00
2023-10-09T10:34:12.059Z,100399.00
2023-10-09T10:36:44.252Z,100396.00
2023-10-09T10:39:20.864Z,100397.00
2023-10-09T10:41:58.841Z,100381.00
2023-10-09T10:44:45.283Z,100383.00
2023-10-09T10:47:26.102Z,100366.00
2023-10-09T10:50:00.635Z,100367.00
2023-10-09T10:52:43.582Z,100379.00
2023-10-09T10:55:40.611Z,100374.00
2023-10-09T10:58:24.999Z,100362.00
2023-10-09T11:01:14.838Z,100365.00
2023-10-09T11:03:57.518Z,100360.00
2023-10-09T11:06:38.942Z,100370.00
2023-10-09T11:09:22.047Z,100368.00
2023-10-09T11:11:56.317Z,100369.00
2023-10-09T11:14:26.550Z,100355.00
2023-10-09T11:17:00.049Z,100358.00
2023-10-09T11:19:33.618Z,100355.00
2023-10-09T11:22:21.004Z,100357.00
2023-10-09T11:25:12.411Z,100353.00
2023-10-09T11:27:51.766Z,100377.00
2023-10-09T11:30:34.392Z,100374.00
2023-10-09T11:33:15.566Z,100377.00
2023-10-09T11:35:58.189Z,100372.00
2023-10-09T11:38:27.212Z,100358.00
2023-10-09T11:41:19.446Z,100352.00
2023-10-09T11:43:58.620Z,100363.00
2023-10-09T11:46:49.541Z,100356.00
2023-10-09T11:49:45.492Z,100351.00
2023-10-09T11:52:31.990Z,100346.00
2023-10-09T11:55:01.065Z,100340.00
2023-10-09T11:57:31.948Z,100353.00
2023-10-09T12:00:01.759Z,100354.00
2023-10-09T12:02:32.589Z,100349.00
2023-10-09T12:05:01.500Z,100352.00
2023-10-09T12:07:30.844Z,100347.00
2023-10-09T12:09:59.594Z,100347.00
2023-10-09T12:12:28.325Z,100353.00
2023-10-09T12:14:57.027Z,100350.00
2023-10-09T12:17:26.991Z,100339.00
2023-10-09T12:19:57.859Z,100351.00
2023-10-09T12:22:28.486Z,100352.00
2023-10-09T12:24:57.714Z,100349.00
2023-10-09T12:27:26.482Z,100358.00
2023-10-09T12:29:58.177Z,100360.00
2023-10-09T12:32:26.954Z,100351.00
2023-10-09T12:34:57.494Z,100357.00
2023-10-09T12:37:26.281Z,100350.00
2023-10-09T12:39:57.401Z,100356.00
2023-10-09T12:42:29.255Z,100357.00
2023-10-09T12:44:59.038Z,100358.00
2023-10-09T12:47:28.240Z,100344.00
2023-10-09T12:49:58.519Z,100360.00
2023-10-09T12:52:31.090Z,100349.00
2023-10-09T12:54:59.992Z,100349.00
2023-10-09T12:57:28.743Z,100342.00
2023-10-09T12:59:57.430Z,100349.00
2023-10-09T13:02:30.848Z,100350.00
2023-10-09T13:05:04.442Z,100342.00
2023-10-09T13:07:33.324Z,100338.00
2023-10-09T13:10:10.899Z,100345.00
2023-10-09T13:12:42.681Z,100339.00
2023-10-09T13:15:12.905Z,100336.00
2023-10-09T13:17:42.726Z,100336.00
2023-10-09T13:20:15.010Z,100339.00
2023-10-09T13:22:47.568Z,100341.00
2023-10-09T13:25:33.651Z,100337.00
2023-10-09T13:28:05.397Z,100324.00
2023-10-09T13:30:41.145Z,100334.00
2023-10-09T13:33:18.292Z,100320.00
2023-10-09T13:35:51.993Z,100333.00
2023-10-09T13:38:21.169Z,100324.00
2023-10-09T13:40:50.746Z,100320.00
2023-10-09T13:43:19.856Z,100332.00
2023-10-09T13:45:51.517Z,100340.00
2023-10-09T13:48:22.245Z,100325.00
2023-10-09T13:51:03.765Z,100331.00
2023-10-09T13:53:32.504Z,100318.00
2023-10-09T13:56:01.192Z,100330.00
2023-10-09T13:58:29.895Z,100321.00
2023-10-09T14:00:58.769Z,100339.00
2023-10-09T14:03:28.662Z,100347.00
2023-10-09T14:06:11.394Z,100344.00
2023-10-09T14:08:43.281Z,100343.00
2023-10-09T14:11:14.527Z,100336.00
2023-10-09T14:13:43.713Z,100336.00
2023-10-09T14:16:25.098Z,100321.00
2023-10-09T14:18:54.703Z,100323.00
2023-10-09T14:21:26.921Z,100332.00
2023-10-09T14:23:58.141Z,100335.00
2023-10-09T14:26:30.444Z,100337.00
2023-10-09T14:28:59.608Z,100335.00
2023-10-09T14:31:29.483Z,100351.00
2023-10-09T14:33:59.236Z,100350.00
2023-10-09T14:36:34.746Z,100348.00
2023-10-09T14:39:05.709Z,100339.00
2023-10-09T14:41:34.976Z,100347.00
2023-10-09T14:44:03.812Z,100345.00
2023-10-09T14:46:32.519Z,100338.00
2023-10-09T14:49:04.203Z,100343.00
2023-10-09T14:51:36.153Z,100343.00
2023-10-09T14:54:05.045Z,100347.00
2023-10-09T14:56:37.312Z,100346.00
2023-10-09T14:59:06.391Z,100343.00
2023-10-09T15:01:35.314Z,100336.00
2023-10-09T15:04:05.091Z,100351.00
2023-10-09T15:06:36.524Z,100342.00
2023-10-09T15:09:10.401Z,100349.00
2023-10-09T15:11:40.063Z,100349.00
2023-10-09T15:14:09.857Z,100351.00
2023-10-09T15:16:40.487Z,100350.00
2023-10-09T15:19:11.070Z,100359.00
2023-10-09T15:21:45.199Z,100347.00
2023-10-09T15:24:19.419Z,100347.00
2023-10-09T15:26:53.542Z,100349.00
2023-10-09T15:29:24.711Z,100349.00
2023-10-09T15:31:53.739Z,100354.00
2023-10-09T15:34:22.899Z,100346.00
2023-10-09T15:36:54.775Z,100351.00
2023-10-09T15:39:24.960Z,100347.00
2023-10-09T15:41:53.677Z,100352.00
2023-10-09T15:44:27.938Z,100349.00
2023-10-09T15:47:01.021Z,100355.00
2023-10-09T15:49:31.189Z,100356.00
2023-10-09T15:52:02.394Z,100358.00
2023-10-09T15:54:31.330Z,100361.00
2023-10-09T15:57:12.397Z,100365.00
2023-10-09T15:59:41.576Z,100380.00
2023-10-09T16:02:10.454Z,100376.00
2023-10-09T16:04:40.553Z,100377.00
2023-10-09T16:07:11.221Z,100377.00
2023-10-09T16:09:40.521Z,100375.00
2023-10-09T16:12:10.629Z,100388.00
2023-10-09T16:14:39.574Z,100381.00
2023-10-09T16:17:08.687Z,100385.00
2023-10-09T16:19:38.461Z,100378.00
2023-10-09T16:22:07.431Z,100377.00
2023-10-09T16:24:39.685Z,100371.00
2023-10-09T16:27:09.159Z,100364.00
2023-10-09T16:29:40.187Z,100370.00
2023-10-09T16:32:12.378Z,100370.00
2023-10-09T16:34:41.728Z,100372.00
2023-10-09T16:37:12.578Z,100381.00
2023-10-09T16:39:43.159Z,100384.00
2023-10-09T16:42:11.931Z,100384.00
2023-10-09T16:44:40.633Z,100384.00
2023-10-09T16:47:12.361Z,100384.00
2023-10-09T16:49:42.698Z,100385.00
2023-10-09T16:52:13.278Z,100394.00
2023-10-09T16:54:44.486Z,100396.00
2023-10-09T16:57:14.019Z,100391.00
2023-10-09T16:59:43.240Z,100392.00
2023-10-09T17:02:14.268Z,100394.00
2023-10-09T17:04:45.479Z,100401.00
2023-10-09T17:07:16.343Z,100402.00
2023-10-09T17:09:50.132Z,100404.00
2023-10-09T17:12:19.289Z,100402.00
2023-10-09T17:14:48.125Z,100396.00
2023-10-09T17:17:19.088Z,100397.00
2023-10-09T17:19:49.630Z,100404.00
2023-10-09T17:22:18.416Z,100404.00
2023-10-09T17:24:48.572Z,100404.00
2023-10-09T17:27:20.135Z,100401.00
2023-10-09T17:29:48.852Z,100396.00
2023-10-09T17:32:17.595Z,100411.00
2023-10-09T17:34:46.344Z,100412.00
2023-10-09T17:37:15.113Z,100407.00
2023-10-09T17:39:43.773Z,100415.00
2023-10-09T17:42:13.903Z,100420.00
2023-10-09T17:44:42.633Z,100416.00
2023-10-09T17:47:12.465Z,100412.00
2023-10-09T17:49:41.456Z,100418.00
2023-10-09T17:52:12.771Z,100411.00
2023-10-09T17:54:41.560Z,100414.00
2023-10-09T17:57:10.242Z,100405.00
2023-10-09T17:59:41.348Z,100405.00
2023-10-09T18:02:10.220Z,100410.00
2023-10-09T18:04:39.377Z,100404.00
2023-10-09T18:07:14.854Z,100406.00
2023-10-09T18:09:43.622Z,100403.00
2023-10-09T18:12:14.551Z,100404.00
2023-10-09T18:14:47.330Z,100409.00
2023-10-09T18:17:20.979Z,100408.00
2023-10-09T18:19:51.726Z,100411.00
2023-10-09T18:22:20.753Z,100405.00
2023-10-09T18:24:49.443Z,100411.00
2023-10-09T18:27:18.106Z,100411.00
2023-10-09T18:29:49.727Z,100409.00
2023-10-09T18:32:19.164Z,100413.00
2023-10-09T18:34:49.437Z,100401.00
2023-10-09T18:37:20.095Z,100408.00
2023-10-09T18:39:51.357Z,100404.00
2023-10-09T18:42:20.412Z,100406.00
2023-10-09T18:44:50.540Z,100406.00
2023-10-09T18:47:20.657Z,100415.00
2023-10-09T18:49:51.442Z,100413.00
2023-10-09T18:52:21.551Z,100410.00
2023-10-09T18:54:50.284Z,100416.00
2023-10-09T18:57:22.288Z,100403.00
2023-10-09T18:59:53.830Z,100410.00
2023-10-09T19:02:22.595Z,100415.00
2023-10-09T19:04:53.381Z,100410.00
2023-10-09T19:07:22.451Z,100404.00
2023-10-09T19:09:51.452Z,100409.00
2023-10-09T19:12:20.142Z,100411.00
2023-10-09T19:14:49.785Z,100413.00
2023-10-09T19:17:20.630Z,100412.00
2023-10-09T19:19:49.402Z,100415.00
2023-10-09T19:22:18.194Z,100418.00
2023-10-09T19:24:48.198Z,100415.00
2023-10-09T19:27:16.932Z,100412.00
2023-10-09T19:29:48.286Z,100411.00
2023-10-09T19:32:19.032Z,100420.00
2023-10-09T19:34:47.802Z,100418.00
2023-10-09T19:37:17.496Z,100419.00
2023-10-09T19:39:46.532Z,100422.00
2023-10-09T19:42:15.218Z,100424.00
2023-10-09T19:44:45.741Z,100412.00
2023-10-09T19:47:14.504Z,100421.00
2023-10-09T19:49:44.736Z,100420.00
2023-10-09T19:52:13.511Z,100421.00
2023-10-09T19:54:44.223Z,100429.00
2023-10-09T19:57:12.952Z,100431.00
2023-10-09T19:59:41.837Z,100428.00
2023-10-09T20:02:10.821Z,100435.00
2023-10-09T20:04:39.669Z,100437.00
2023-10-09T20:07:12.547Z,100443.00
2023-10-09T20:09:41.294Z,100448.00
2023-10-09T20:12:10.002Z,100448.00
2023-10-09T20:14:38.960Z,100435.00
2023-10-09T20:17:07.927Z,100438.00
2023-10-09T20:19:36.668Z,100433.00
2023-10-09T20:22:06.998Z,100438.00
2023-10-09T20:24:37.132Z,100439.00
2023-10-09T20:27:06.658Z,100433.00
2023-10-09T20:29:37.101Z,100440.00
2023-10-09T20:32:07.154Z,100449.00
2023-10-09T20:34:35.906Z,100450.00
2023-10-09T20:37:05.811Z,100448.00
2023-10-09T20:39:34.567Z,100449.00
2023-10-09T20:42:05.660Z,100455.00
2023-10-09T20:44:36.594Z,100460.00
2023-10-09T20:47:05.596Z,100472.00
2023-10-09T20:49:34.575Z,100470.00
2023-10-09T20:52:03.386Z,100472.00
2023-10-09T20:54:32.120Z,100482.00
2023-10-09T20:57:01.361Z,100476.00
2023-10-09T20:59:31.628Z,100476.00
2023-10-09T21:02:01.003Z,100479.00
2023-10-09T21:04:29.815Z,100486.00
2023-10-09T21:06:58.790Z,100486.00
2023-10-09T21:09:28.258Z,100490.00
2023-10-09T21:11:56.962Z,100484.00
2023-10-09T21:14:26.552Z,100482.00
2023-10-09T21:16:56.888Z,100491.00
2023-10-09T21:19:25.797Z,100482.00
2023-10-09T21:21:55.015Z,100491.00
2023-10-09T21:24:24.819Z,100490.00
2023-10-09T21:26:55.554Z,100492.00
2023-10-09T21:29:24.331Z,100500.00
2023-10-09T21:31:54.297Z,100496.00
2023-10-09T21:34:24.517Z,100506.00
2023-10-09T21:36:53.627Z,100493.00
2023-10-09T21:39:22.369Z,100508.00
2023-10-09T21:41:51.053Z,100500.00
2023-10-09T21:44:19.786Z,100510.00
2023-10-09T21:46:48.598Z,100507.00
2023-10-09T21:49:17.439Z,100507.00
2023-10-09T21:51:47.565Z,100513.00
2023-10-09T21:54:17.018Z,100506.00
2023-10-09T21:56:45.879Z,100513.00
2023-10-09T21:59:14.680Z,100508.00
2023-10-09T22:01:43.855Z,100518.00
2023-10-09T22:04:12.992Z,100514.00
2023-10-09T22:06:41.804Z,100511.00
2023-10-09T22:09:15.796Z,100515.00
2023-10-09T22:11:45.350Z,100522.00
2023-10-09T22:14:15.044Z,100512.00
2023-10-09T22:16:43.859Z,100519.00
2023-10-09T22:19:14.855Z,100505.00
2023-10-09T22:21:48.740Z,100508.00
2023-10-09T22:24:21.975Z,100511.00
2023-10-09T22:26:52.672Z,100515.00
2023-10-09T22:29:21.605Z,100515.00
2023-10-09T22:31:50.559Z,100509.00
2023-10-09T22:34:21.193Z,100518.00
2023-10-09T22:36:54.945Z,100514.00
2023-10-09T22:39:34.485Z,100511.00
2023-10-09T22:42:04.629Z,100509.00
2023-10-09T22:44:34.649Z,100517.00
2023-10-09T22:47:08.775Z,100516.00
2023-10-09T22:49:39.430Z,100508.00
2023-10-09T22:52:14.162Z,100511.00
2023-10-09T22:54:46.721Z,100513.00
2023-10-09T22:57:15.502Z,100511.00
2023-10-09T22:59:51.607Z,100512.00
2023-10-09T23:02:43.514Z,100520.00
2023-10-09T23:05:18.499Z,100533.00
2023-10-09T23:08:00.269Z,100534.00
2023-10-09T23:10:32.993Z,100535.00
2023-10-09T23:13:15.697Z,100535.00
2023-10-09T23:15:50.877Z,100537.00
2023-10-09T23:18:33.411Z,100546.00
2023-10-09T23:21:16.124Z,100541.00
2023-10-09T23:23:45.898Z,100540.00
2023-10-09T23:26:23.644Z,100541.00
2023-10-09T23:28:56.270Z,100538.00
2023-10-09T23:31:27.055Z,100539.00
2023-10-09T23:33:57.973Z,100542.00
2023-10-09T23:36:29.874Z,100554.00
2023-10-09T23:39:11.804Z,100559.00
2023-10-09T23:41:41.685Z,100549.00
2023-10-09T23:44:10.813Z,100551.00
2023-10-09T23:46:39.927Z,100546.00
2023-10-09T23:49:09.092Z,100548.00
2023-10-09T23:51:41.202Z,100552.00
2023-10-09T23:54:13.543Z,100551.00
2023-10-09T23:56:57.041Z,100559.00
2023-10-09T23:59:39.189Z,100557.00
